Terminal Aerodrome Forecast
Issued by NWS

Home | Current Version | Previous Version | Text Only | Print | Product List | Glossary On
Versions: 1 2 3 4 5 6 7 8 9 10 11 12 13 14 15 16
000
FTUS43 KFGF 211300 AAA
TAFBJI
TAF AMD
KBJI 211354Z 2114/2212 31015G25KT P6SM BKN020
      TEMPO 2114/2116 BKN010
     FM211700 32015KT P6SM BKN040
     FM220000 32006KT P6SM SKC=

USA.gov is the U.S. government's official web portal to all federal, state and local government web resources and services.